sensor_id;sensor_type;location;lat;lon;timestamp;P1;durP1;ratioP1;P2;durP2;ratioP2
20611;SDS011;10465;42.686;23.364;2023-03-11T00:00:57;13.20;;;10.13;;
20611;SDS011;10465;42.686;23.364;2023-03-11T00:03:23;14.45;;;10.98;;
20611;SDS011;10465;42.686;23.364;2023-03-11T00:05:49;13.63;;;10.20;;
20611;SDS011;10465;42.686;23.364;2023-03-11T00:08:18;10.27;;;8.18;;
20611;SDS011;10465;42.686;23.364;2023-03-11T00:10:45;6.90;;;5.00;;
20611;SDS011;10465;42.686;23.364;2023-03-11T00:13:13;4.05;;;3.10;;
20611;SDS011;10465;42.686;23.364;2023-03-11T00:15:39;4.25;;;1.80;;
20611;SDS011;10465;42.686;23.364;2023-03-11T00:18:06;3.10;;;1.88;;
20611;SDS011;10465;42.686;23.364;2023-03-11T00:20:35;3.90;;;1.20;;
20611;SDS011;10465;42.686;23.364;2023-03-11T00:23:03;2.05;;;1.50;;
20611;SDS011;10465;42.686;23.364;2023-03-11T00:25:30;1.90;;;1.27;;
20611;SDS011;10465;42.686;23.364;2023-03-11T00:27:57;3.42;;;1.13;;
20611;SDS011;10465;42.686;23.364;2023-03-11T00:30:24;1.10;;;0.80;;
20611;SDS011;10465;42.686;23.364;2023-03-11T00:32:51;1.33;;;0.77;;
20611;SDS011;10465;42.686;23.364;2023-03-11T00:35:20;1.88;;;1.00;;
20611;SDS011;10465;42.686;23.364;2023-03-11T00:37:51;2.30;;;0.80;;
20611;SDS011;10465;42.686;23.364;2023-03-11T00:40:18;1.50;;;0.50;;
20611;SDS011;10465;42.686;23.364;2023-03-11T00:42:44;1.38;;;0.70;;
20611;SDS011;10465;42.686;23.364;2023-03-11T00:45:11;1.42;;;0.68;;
20611;SDS011;10465;42.686;23.364;2023-03-11T00:47:37;1.27;;;0.60;;
20611;SDS011;10465;42.686;23.364;2023-03-11T00:50:03;1.77;;;0.60;;
20611;SDS011;10465;42.686;23.364;2023-03-11T00:52:30;1.38;;;0.90;;
20611;SDS011;10465;42.686;23.364;2023-03-11T00:54:55;2.55;;;0.95;;
20611;SDS011;10465;42.686;23.364;2023-03-11T00:57:23;1.77;;;1.40;;
20611;SDS011;10465;42.686;23.364;2023-03-11T00:59:48;2.65;;;1.20;;
20611;SDS011;10465;42.686;23.364;2023-03-11T01:02:13;2.33;;;1.15;;
20611;SDS011;10465;42.686;23.364;2023-03-11T01:04:39;1.60;;;0.60;;
20611;SDS011;10465;42.686;23.364;2023-03-11T01:07:04;3.75;;;0.80;;
20611;SDS011;10465;42.686;23.364;2023-03-11T01:09:30;2.63;;;0.60;;
20611;SDS011;10465;42.686;23.364;2023-03-11T01:11:55;1.60;;;0.75;;
20611;SDS011;10465;42.686;23.364;2023-03-11T01:14:21;1.40;;;0.80;;
20611;SDS011;10465;42.686;23.364;2023-03-11T01:16:47;1.35;;;0.52;;
20611;SDS011;10465;42.686;23.364;2023-03-11T01:19:12;0.65;;;0.65;;
20611;SDS011;10465;42.686;23.364;2023-03-11T01:21:38;1.38;;;0.95;;
20611;SDS011;10465;42.686;23.364;2023-03-11T01:24:03;1.17;;;0.82;;
20611;SDS011;10465;42.686;23.364;2023-03-11T01:26:29;1.75;;;0.88;;
20611;SDS011;10465;42.686;23.364;2023-03-11T01:28:54;1.15;;;0.90;;
20611;SDS011;10465;42.686;23.364;2023-03-11T01:31:20;2.92;;;0.77;;
20611;SDS011;10465;42.686;23.364;2023-03-11T01:33:45;2.67;;;0.90;;
20611;SDS011;10465;42.686;23.364;2023-03-11T01:36:11;2.03;;;0.77;;
20611;SDS011;10465;42.686;23.364;2023-03-11T01:38:36;1.05;;;0.90;;
20611;SDS011;10465;42.686;23.364;2023-03-11T01:41:02;4.78;;;1.02;;
20611;SDS011;10465;42.686;23.364;2023-03-11T01:48:51;2.78;;;1.00;;
20611;SDS011;10465;42.686;23.364;2023-03-11T01:51:40;1.63;;;0.95;;
20611;SDS011;10465;42.686;23.364;2023-03-11T01:54:11;1.67;;;1.48;;
20611;SDS011;10465;42.686;23.364;2023-03-11T01:56:39;3.80;;;2.22;;
20611;SDS011;10465;42.686;23.364;2023-03-11T01:59:07;3.40;;;2.33;;
20611;SDS011;10465;42.686;23.364;2023-03-11T02:01:36;3.70;;;2.67;;
20611;SDS011;10465;42.686;23.364;2023-03-11T02:04:10;4.68;;;3.58;;
20611;SDS011;10465;42.686;23.364;2023-03-11T02:06:35;6.28;;;3.53;;
20611;SDS011;10465;42.686;23.364;2023-03-11T02:09:02;4.85;;;3.58;;
20611;SDS011;10465;42.686;23.364;2023-03-11T02:11:28;5.28;;;3.75;;
20611;SDS011;10465;42.686;23.364;2023-03-11T02:13:55;5.47;;;2.90;;
20611;SDS011;10465;42.686;23.364;2023-03-11T02:16:24;2.45;;;1.90;;
20611;SDS011;10465;42.686;23.364;2023-03-11T02:18:50;2.55;;;1.83;;
20611;SDS011;10465;42.686;23.364;2023-03-11T02:21:23;3.15;;;2.30;;
20611;SDS011;10465;42.686;23.364;2023-03-11T02:29:22;3.30;;;2.28;;
20611;SDS011;10465;42.686;23.364;2023-03-11T02:31:50;3.47;;;2.40;;
20611;SDS011;10465;42.686;23.364;2023-03-11T02:34:27;4.03;;;2.40;;
20611;SDS011;10465;42.686;23.364;2023-03-11T02:36:57;3.38;;;2.15;;
20611;SDS011;10465;42.686;23.364;2023-03-11T02:39:40;3.25;;;2.47;;
20611;SDS011;10465;42.686;23.364;2023-03-11T02:42:26;2.90;;;2.08;;
20611;SDS011;10465;42.686;23.364;2023-03-11T02:45:00;4.53;;;2.38;;
20611;SDS011;10465;42.686;23.364;2023-03-11T02:47:31;3.55;;;2.30;;
20611;SDS011;10465;42.686;23.364;2023-03-11T02:49:57;4.03;;;2.17;;
20611;SDS011;10465;42.686;23.364;2023-03-11T02:52:27;4.07;;;2.50;;
20611;SDS011;10465;42.686;23.364;2023-03-11T02:54:53;2.95;;;2.58;;
20611;SDS011;10465;42.686;23.364;2023-03-11T02:57:18;2.83;;;2.55;;
20611;SDS011;10465;42.686;23.364;2023-03-11T02:59:44;4.85;;;2.80;;
20611;SDS011;10465;42.686;23.364;2023-03-11T03:02:09;4.72;;;2.85;;
20611;SDS011;10465;42.686;23.364;2023-03-11T03:04:34;3.72;;;3.03;;
20611;SDS011;10465;42.686;23.364;2023-03-11T03:07:00;4.22;;;3.47;;
20611;SDS011;10465;42.686;23.364;2023-03-11T03:09:25;3.70;;;2.90;;
20611;SDS011;10465;42.686;23.364;2023-03-11T03:11:51;4.57;;;2.80;;
20611;SDS011;10465;42.686;23.364;2023-03-11T03:14:16;4.47;;;3.35;;
20611;SDS011;10465;42.686;23.364;2023-03-11T03:16:42;5.07;;;3.30;;
20611;SDS011;10465;42.686;23.364;2023-03-11T03:19:07;5.22;;;3.50;;
20611;SDS011;10465;42.686;23.364;2023-03-11T03:21:33;5.55;;;3.72;;
20611;SDS011;10465;42.686;23.364;2023-03-11T03:23:58;4.38;;;3.13;;
20611;SDS011;10465;42.686;23.364;2023-03-11T03:26:23;5.60;;;3.72;;
20611;SDS011;10465;42.686;23.364;2023-03-11T03:28:49;4.20;;;3.30;;
20611;SDS011;10465;42.686;23.364;2023-03-11T03:31:14;4.43;;;3.20;;
20611;SDS011;10465;42.686;23.364;2023-03-11T03:33:40;5.55;;;3.45;;
20611;SDS011;10465;42.686;23.364;2023-03-11T03:36:09;4.10;;;3.38;;
20611;SDS011;10465;42.686;23.364;2023-03-11T03:38:37;4.38;;;3.88;;
20611;SDS011;10465;42.686;23.364;2023-03-11T03:41:02;4.47;;;3.10;;
20611;SDS011;10465;42.686;23.364;2023-03-11T03:43:28;4.13;;;3.55;;
20611;SDS011;10465;42.686;23.364;2023-03-11T03:45:54;4.68;;;3.47;;
20611;SDS011;10465;42.686;23.364;2023-03-11T03:48:21;6.35;;;4.07;;
20611;SDS011;10465;42.686;23.364;2023-03-11T03:50:46;6.13;;;3.53;;
20611;SDS011;10465;42.686;23.364;2023-03-11T03:53:11;4.38;;;3.55;;
20611;SDS011;10465;42.686;23.364;2023-03-11T03:55:37;5.53;;;4.30;;
20611;SDS011;10465;42.686;23.364;2023-03-11T03:58:02;7.10;;;5.35;;
20611;SDS011;10465;42.686;23.364;2023-03-11T04:00:28;6.38;;;4.72;;
20611;SDS011;10465;42.686;23.364;2023-03-11T04:02:53;9.00;;;5.53;;
20611;SDS011;10465;42.686;23.364;2023-03-11T04:05:18;5.75;;;4.78;;
20611;SDS011;10465;42.686;23.364;2023-03-11T04:07:44;7.72;;;4.60;;
20611;SDS011;10465;42.686;23.364;2023-03-11T04:10:11;8.45;;;3.92;;
20611;SDS011;10465;42.686;23.364;2023-03-11T04:12:38;5.18;;;3.75;;
20611;SDS011;10465;42.686;23.364;2023-03-11T04:15:03;3.75;;;3.03;;
20611;SDS011;10465;42.686;23.364;2023-03-11T04:17:29;3.47;;;2.90;;
20611;SDS011;10465;42.686;23.364;2023-03-11T04:19:55;4.43;;;2.95;;
20611;SDS011;10465;42.686;23.364;2023-03-11T04:22:20;4.38;;;2.88;;
20611;SDS011;10465;42.686;23.364;2023-03-11T04:24:46;4.65;;;3.40;;
20611;SDS011;10465;42.686;23.364;2023-03-11T04:27:11;7.25;;;3.42;;
20611;SDS011;10465;42.686;23.364;2023-03-11T04:29:37;3.67;;;2.53;;
20611;SDS011;10465;42.686;23.364;2023-03-11T04:32:02;2.03;;;1.80;;
20611;SDS011;10465;42.686;23.364;2023-03-11T04:34:28;1.42;;;1.17;;
20611;SDS011;10465;42.686;23.364;2023-03-11T04:36:53;1.77;;;1.10;;
20611;SDS011;10465;42.686;23.364;2023-03-11T04:39:19;1.50;;;0.65;;
20611;SDS011;10465;42.686;23.364;2023-03-11T04:41:44;2.05;;;0.50;;
20611;SDS011;10465;42.686;23.364;2023-03-11T04:44:10;0.63;;;0.55;;
20611;SDS011;10465;42.686;23.364;2023-03-11T04:46:35;0.25;;;0.25;;
20611;SDS011;10465;42.686;23.364;2023-03-11T04:49:01;0.50;;;0.30;;
20611;SDS011;10465;42.686;23.364;2023-03-11T04:51:26;0.30;;;0.30;;
20611;SDS011;10465;42.686;23.364;2023-03-11T04:53:52;1.10;;;0.73;;
20611;SDS011;10465;42.686;23.364;2023-03-11T04:56:17;0.47;;;0.45;;
20611;SDS011;10465;42.686;23.364;2023-03-11T04:58:42;0.35;;;0.28;;
20611;SDS011;10465;42.686;23.364;2023-03-11T05:01:08;1.52;;;0.40;;
20611;SDS011;10465;42.686;23.364;2023-03-11T05:03:33;0.55;;;0.35;;
20611;SDS011;10465;42.686;23.364;2023-03-11T05:05:59;0.40;;;0.32;;
20611;SDS011;10465;42.686;23.364;2023-03-11T05:08:24;0.73;;;0.40;;
20611;SDS011;10465;42.686;23.364;2023-03-11T05:10:51;1.92;;;0.40;;
20611;SDS011;10465;42.686;23.364;2023-03-11T05:13:17;1.20;;;0.57;;
20611;SDS011;10465;42.686;23.364;2023-03-11T05:15:44;0.30;;;0.30;;
20611;SDS011;10465;42.686;23.364;2023-03-11T05:18:12;0.50;;;0.40;;
20611;SDS011;10465;42.686;23.364;2023-03-11T05:20:38;0.20;;;0.20;;
20611;SDS011;10465;42.686;23.364;2023-03-11T05:23:03;1.55;;;0.30;;
20611;SDS011;10465;42.686;23.364;2023-03-11T05:25:29;1.05;;;0.55;;
20611;SDS011;10465;42.686;23.364;2023-03-11T05:27:55;0.70;;;0.60;;
20611;SDS011;10465;42.686;23.364;2023-03-11T05:30:21;1.13;;;0.60;;
20611;SDS011;10465;42.686;23.364;2023-03-11T05:32:46;0.82;;;0.50;;
20611;SDS011;10465;42.686;23.364;2023-03-11T05:35:13;1.77;;;0.60;;
20611;SDS011;10465;42.686;23.364;2023-03-11T05:37:38;0.68;;;0.43;;
20611;SDS011;10465;42.686;23.364;2023-03-11T05:40:05;0.93;;;0.40;;
20611;SDS011;10465;42.686;23.364;2023-03-11T05:42:32;0.60;;;0.50;;
20611;SDS011;10465;42.686;23.364;2023-03-11T05:44:58;1.23;;;0.40;;
20611;SDS011;10465;42.686;23.364;2023-03-11T05:47:24;0.80;;;0.50;;
20611;SDS011;10465;42.686;23.364;2023-03-11T05:49:49;0.60;;;0.50;;
20611;SDS011;10465;42.686;23.364;2023-03-11T05:52:15;1.50;;;1.00;;
20611;SDS011;10465;42.686;23.364;2023-03-11T05:54:41;0.77;;;0.50;;
20611;SDS011;10465;42.686;23.364;2023-03-11T05:57:06;0.73;;;0.60;;
20611;SDS011;10465;42.686;23.364;2023-03-11T05:59:32;1.05;;;0.75;;
20611;SDS011;10465;42.686;23.364;2023-03-11T06:01:59;0.77;;;0.52;;
20611;SDS011;10465;42.686;23.364;2023-03-11T06:04:25;1.13;;;0.63;;
20611;SDS011;10465;42.686;23.364;2023-03-11T06:06:50;0.70;;;0.50;;
20611;SDS011;10465;42.686;23.364;2023-03-11T06:09:16;0.90;;;0.77;;
20611;SDS011;10465;42.686;23.364;2023-03-11T06:11:41;0.65;;;0.52;;
20611;SDS011;10465;42.686;23.364;2023-03-11T06:14:09;0.90;;;0.55;;
20611;SDS011;10465;42.686;23.364;2023-03-11T06:16:36;0.80;;;0.60;;
20611;SDS011;10465;42.686;23.364;2023-03-11T06:19:03;0.75;;;0.60;;
20611;SDS011;10465;42.686;23.364;2023-03-11T06:21:29;1.15;;;0.68;;
20611;SDS011;10465;42.686;23.364;2023-03-11T06:23:55;1.70;;;0.68;;
20611;SDS011;10465;42.686;23.364;2023-03-11T06:26:21;1.35;;;0.75;;
20611;SDS011;10465;42.686;23.364;2023-03-11T06:28:47;0.63;;;0.50;;
20611;SDS011;10465;42.686;23.364;2023-03-11T06:31:14;1.05;;;0.57;;
20611;SDS011;10465;42.686;23.364;2023-03-11T06:33:41;1.95;;;0.60;;
20611;SDS011;10465;42.686;23.364;2023-03-11T06:36:07;1.17;;;0.60;;
20611;SDS011;10465;42.686;23.364;2023-03-11T06:38:34;1.65;;;0.98;;
20611;SDS011;10465;42.686;23.364;2023-03-11T06:41:00;1.38;;;0.93;;
20611;SDS011;10465;42.686;23.364;2023-03-11T06:43:28;2.33;;;1.40;;
20611;SDS011;10465;42.686;23.364;2023-03-11T06:45:55;2.08;;;1.60;;
20611;SDS011;10465;42.686;23.364;2023-03-11T06:48:21;2.15;;;0.95;;
20611;SDS011;10465;42.686;23.364;2023-03-11T06:50:56;1.98;;;1.20;;
20611;SDS011;10465;42.686;23.364;2023-03-11T06:53:23;2.47;;;1.48;;
20611;SDS011;10465;42.686;23.364;2023-03-11T06:58:29;1.55;;;0.98;;
20611;SDS011;10465;42.686;23.364;2023-03-11T07:01:06;2.70;;;1.30;;
20611;SDS011;10465;42.686;23.364;2023-03-11T07:03:34;2.33;;;1.33;;
20611;SDS011;10465;42.686;23.364;2023-03-11T07:05:59;2.15;;;1.40;;
20611;SDS011;10465;42.686;23.364;2023-03-11T07:08:25;2.15;;;1.67;;
20611;SDS011;10465;42.686;23.364;2023-03-11T07:13:33;1.40;;;0.90;;
20611;SDS011;10465;42.686;23.364;2023-03-11T07:16:06;1.40;;;0.77;;
20611;SDS011;10465;42.686;23.364;2023-03-11T07:18:33;1.73;;;1.10;;
20611;SDS011;10465;42.686;23.364;2023-03-11T07:21:00;1.98;;;1.00;;
20611;SDS011;10465;42.686;23.364;2023-03-11T07:23:27;3.33;;;1.20;;
20611;SDS011;10465;42.686;23.364;2023-03-11T07:25:52;2.55;;;1.10;;
20611;SDS011;10465;42.686;23.364;2023-03-11T07:28:20;2.70;;;1.27;;
20611;SDS011;10465;42.686;23.364;2023-03-11T07:30:46;1.83;;;1.35;;
20611;SDS011;10465;42.686;23.364;2023-03-11T07:33:12;2.95;;;1.30;;
20611;SDS011;10465;42.686;23.364;2023-03-11T07:35:38;2.42;;;1.58;;
20611;SDS011;10465;42.686;23.364;2023-03-11T07:38:04;1.92;;;1.30;;
20611;SDS011;10465;42.686;23.364;2023-03-11T07:40:30;3.53;;;1.88;;
20611;SDS011;10465;42.686;23.364;2023-03-11T07:42:55;2.92;;;1.17;;
20611;SDS011;10465;42.686;23.364;2023-03-11T07:45:21;2.72;;;1.67;;
20611;SDS011;10465;42.686;23.364;2023-03-11T07:47:47;3.20;;;1.83;;
20611;SDS011;10465;42.686;23.364;2023-03-11T07:50:12;5.35;;;2.78;;
20611;SDS011;10465;42.686;23.364;2023-03-11T07:52:38;3.10;;;2.35;;
20611;SDS011;10465;42.686;23.364;2023-03-11T07:55:04;3.83;;;1.60;;
20611;SDS011;10465;42.686;23.364;2023-03-11T07:57:29;2.58;;;1.30;;
20611;SDS011;10465;42.686;23.364;2023-03-11T07:59:55;1.67;;;1.10;;
20611;SDS011;10465;42.686;23.364;2023-03-11T08:02:20;4.38;;;1.42;;
20611;SDS011;10465;42.686;23.364;2023-03-11T08:04:45;1.75;;;1.30;;
20611;SDS011;10465;42.686;23.364;2023-03-11T08:07:11;2.60;;;1.70;;
20611;SDS011;10465;42.686;23.364;2023-03-11T08:09:36;2.67;;;1.90;;
20611;SDS011;10465;42.686;23.364;2023-03-11T08:12:02;4.00;;;1.95;;
20611;SDS011;10465;42.686;23.364;2023-03-11T08:14:27;2.13;;;1.25;;
20611;SDS011;10465;42.686;23.364;2023-03-11T08:16:53;2.75;;;1.40;;
20611;SDS011;10465;42.686;23.364;2023-03-11T08:19:18;1.33;;;1.10;;
20611;SDS011;10465;42.686;23.364;2023-03-11T08:21:44;1.63;;;1.35;;
20611;SDS011;10465;42.686;23.364;2023-03-11T08:24:11;2.90;;;1.45;;
20611;SDS011;10465;42.686;23.364;2023-03-11T08:26:37;2.47;;;1.20;;
20611;SDS011;10465;42.686;23.364;2023-03-11T08:29:04;1.40;;;1.27;;
20611;SDS011;10465;42.686;23.364;2023-03-11T08:31:30;1.90;;;0.90;;
20611;SDS011;10465;42.686;23.364;2023-03-11T08:34:07;2.08;;;1.10;;
20611;SDS011;10465;42.686;23.364;2023-03-11T08:36:34;2.15;;;1.23;;
20611;SDS011;10465;42.686;23.364;2023-03-11T08:38:59;1.65;;;1.00;;
20611;SDS011;10465;42.686;23.364;2023-03-11T08:41:26;2.55;;;1.02;;
20611;SDS011;10465;42.686;23.364;2023-03-11T08:43:51;3.67;;;1.20;;
20611;SDS011;10465;42.686;23.364;2023-03-11T08:48:48;3.35;;;1.02;;
20611;SDS011;10465;42.686;23.364;2023-03-11T08:51:14;3.22;;;1.20;;
20611;SDS011;10465;42.686;23.364;2023-03-11T08:53:39;1.60;;;1.05;;
20611;SDS011;10465;42.686;23.364;2023-03-11T08:56:05;2.75;;;1.30;;
20611;SDS011;10465;42.686;23.364;2023-03-11T08:58:31;2.25;;;1.05;;
20611;SDS011;10465;42.686;23.364;2023-03-11T09:00:56;1.48;;;1.00;;
20611;SDS011;10465;42.686;23.364;2023-03-11T09:03:22;1.70;;;0.90;;
20611;SDS011;10465;42.686;23.364;2023-03-11T09:05:47;4.18;;;1.00;;
20611;SDS011;10465;42.686;23.364;2023-03-11T09:08:13;1.83;;;1.10;;
20611;SDS011;10465;42.686;23.364;2023-03-11T09:10:39;1.52;;;0.95;;
20611;SDS011;10465;42.686;23.364;2023-03-11T09:13:05;2.42;;;0.95;;
20611;SDS011;10465;42.686;23.364;2023-03-11T09:15:30;1.50;;;0.88;;
20611;SDS011;10465;42.686;23.364;2023-03-11T09:17:56;6.38;;;0.80;;
20611;SDS011;10465;42.686;23.364;2023-03-11T09:20:21;3.72;;;1.27;;
20611;SDS011;10465;42.686;23.364;2023-03-11T09:22:47;1.60;;;1.23;;
20611;SDS011;10465;42.686;23.364;2023-03-11T09:25:13;1.55;;;1.10;;
20611;SDS011;10465;42.686;23.364;2023-03-11T09:27:39;0.75;;;0.60;;
20611;SDS011;10465;42.686;23.364;2023-03-11T09:30:05;1.20;;;0.80;;
20611;SDS011;10465;42.686;23.364;2023-03-11T09:32:31;1.75;;;1.13;;
20611;SDS011;10465;42.686;23.364;2023-03-11T09:34:57;3.03;;;1.20;;
20611;SDS011;10465;42.686;23.364;2023-03-11T09:37:23;1.33;;;1.10;;
20611;SDS011;10465;42.686;23.364;2023-03-11T09:39:49;2.10;;;1.10;;
20611;SDS011;10465;42.686;23.364;2023-03-11T09:45:00;1.92;;;1.08;;
20611;SDS011;10465;42.686;23.364;2023-03-11T09:53:23;2.15;;;1.05;;
20611;SDS011;10465;42.686;23.364;2023-03-11T09:56:09;3.80;;;0.90;;
20611;SDS011;10465;42.686;23.364;2023-03-11T09:58:43;1.35;;;0.88;;
20611;SDS011;10465;42.686;23.364;2023-03-11T10:01:25;2.13;;;0.80;;
20611;SDS011;10465;42.686;23.364;2023-03-11T10:03:55;3.20;;;1.00;;
20611;SDS011;10465;42.686;23.364;2023-03-11T10:06:27;1.58;;;1.00;;
20611;SDS011;10465;42.686;23.364;2023-03-11T10:20:00;2.35;;;1.23;;
20611;SDS011;10465;42.686;23.364;2023-03-11T10:27:49;2.55;;;1.20;;
20611;SDS011;10465;42.686;23.364;2023-03-11T10:30:31;1.88;;;0.68;;
20611;SDS011;10465;42.686;23.364;2023-03-11T10:35:56;1.83;;;0.85;;
20611;SDS011;10465;42.686;23.364;2023-03-11T10:40:57;1.70;;;1.20;;
20611;SDS011;10465;42.686;23.364;2023-03-11T10:46:06;1.98;;;1.02;;
20611;SDS011;10465;42.686;23.364;2023-03-11T10:48:43;2.97;;;1.10;;
20611;SDS011;10465;42.686;23.364;2023-03-11T10:51:11;1.80;;;1.15;;
20611;SDS011;10465;42.686;23.364;2023-03-11T10:53:49;2.22;;;1.20;;
20611;SDS011;10465;42.686;23.364;2023-03-11T10:58:59;3.10;;;1.15;;
20611;SDS011;10465;42.686;23.364;2023-03-11T11:01:25;1.52;;;1.20;;
20611;SDS011;10465;42.686;23.364;2023-03-11T11:03:53;2.05;;;1.30;;
20611;SDS011;10465;42.686;23.364;2023-03-11T11:09:18;2.33;;;1.35;;
20611;SDS011;10465;42.686;23.364;2023-03-11T11:14:42;1.33;;;1.20;;
20611;SDS011;10465;42.686;23.364;2023-03-11T11:19:46;2.17;;;1.13;;
20611;SDS011;10465;42.686;23.364;2023-03-11T11:22:18;3.13;;;1.27;;
20611;SDS011;10465;42.686;23.364;2023-03-11T11:24:46;2.60;;;1.20;;
20611;SDS011;10465;42.686;23.364;2023-03-11T11:29:45;1.48;;;1.05;;
20611;SDS011;10465;42.686;23.364;2023-03-11T11:32:16;2.40;;;1.40;;
20611;SDS011;10465;42.686;23.364;2023-03-11T11:34:55;2.33;;;1.40;;
20611;SDS011;10465;42.686;23.364;2023-03-11T11:37:24;2.88;;;1.40;;
20611;SDS011;10465;42.686;23.364;2023-03-11T11:40:00;3.28;;;1.40;;
20611;SDS011;10465;42.686;23.364;2023-03-11T11:43:04;1.17;;;1.00;;
20611;SDS011;10465;42.686;23.364;2023-03-11T11:45:48;1.90;;;1.13;;
20611;SDS011;10465;42.686;23.364;2023-03-11T11:48:35;3.55;;;1.15;;
20611;SDS011;10465;42.686;23.364;2023-03-11T11:51:21;2.95;;;1.02;;
20611;SDS011;10465;42.686;23.364;2023-03-11T11:54:13;3.22;;;1.10;;
20611;SDS011;10465;42.686;23.364;2023-03-11T11:56:42;2.15;;;1.50;;
20611;SDS011;10465;42.686;23.364;2023-03-11T11:59:19;3.42;;;1.70;;
20611;SDS011;10465;42.686;23.364;2023-03-11T12:10:48;3.38;;;1.20;;
20611;SDS011;10465;42.686;23.364;2023-03-11T12:13:43;3.08;;;1.70;;
20611;SDS011;10465;42.686;23.364;2023-03-11T12:16:34;2.05;;;1.15;;
20611;SDS011;10465;42.686;23.364;2023-03-11T12:19:38;2.08;;;1.23;;
20611;SDS011;10465;42.686;23.364;2023-03-11T12:25:07;3.17;;;1.10;;
20611;SDS011;10465;42.686;23.364;2023-03-11T12:30:22;2.17;;;1.00;;
20611;SDS011;10465;42.686;23.364;2023-03-11T12:36:03;3.13;;;1.10;;
20611;SDS011;10465;42.686;23.364;2023-03-11T12:38:33;3.20;;;1.00;;
20611;SDS011;10465;42.686;23.364;2023-03-11T12:41:01;2.85;;;1.10;;
20611;SDS011;10465;42.686;23.364;2023-03-11T12:46:13;2.42;;;0.93;;
20611;SDS011;10465;42.686;23.364;2023-03-11T12:48:48;3.00;;;0.93;;
20611;SDS011;10465;42.686;23.364;2023-03-11T12:54:19;2.28;;;0.70;;
20611;SDS011;10465;42.686;23.364;2023-03-11T12:56:58;1.02;;;0.70;;
20611;SDS011;10465;42.686;23.364;2023-03-11T13:08:16;2.97;;;0.80;;
20611;SDS011;10465;42.686;23.364;2023-03-11T13:15:54;1.52;;;1.20;;
20611;SDS011;10465;42.686;23.364;2023-03-11T13:18:23;1.83;;;1.13;;
20611;SDS011;10465;42.686;23.364;2023-03-11T13:21:00;2.08;;;1.20;;
20611;SDS011;10465;42.686;23.364;2023-03-11T13:23:28;1.67;;;1.08;;
20611;SDS011;10465;42.686;23.364;2023-03-11T13:40:32;2.67;;;1.35;;
20611;SDS011;10465;42.686;23.364;2023-03-11T13:43:06;2.22;;;1.50;;
20611;SDS011;10465;42.686;23.364;2023-03-11T13:45:36;2.28;;;1.27;;
20611;SDS011;10465;42.686;23.364;2023-03-11T13:48:05;2.22;;;1.35;;
20611;SDS011;10465;42.686;23.364;2023-03-11T13:50:48;3.72;;;1.63;;
20611;SDS011;10465;42.686;23.364;2023-03-11T13:53:18;4.00;;;1.45;;
20611;SDS011;10465;42.686;23.364;2023-03-11T13:55:49;2.22;;;1.35;;
20611;SDS011;10465;42.686;23.364;2023-03-11T13:58:22;2.58;;;1.50;;
20611;SDS011;10465;42.686;23.364;2023-03-11T14:00:49;3.03;;;1.80;;
20611;SDS011;10465;42.686;23.364;2023-03-11T14:03:17;2.78;;;1.60;;
20611;SDS011;10465;42.686;23.364;2023-03-11T14:05:57;3.13;;;1.92;;
20611;SDS011;10465;42.686;23.364;2023-03-11T14:08:29;3.40;;;1.50;;
20611;SDS011;10465;42.686;23.364;2023-03-11T14:11:12;3.50;;;1.85;;
20611;SDS011;10465;42.686;23.364;2023-03-11T14:13:42;2.35;;;1.58;;
20611;SDS011;10465;42.686;23.364;2023-03-11T14:19:03;3.20;;;1.67;;
20611;SDS011;10465;42.686;23.364;2023-03-11T14:21:35;4.20;;;1.50;;
20611;SDS011;10465;42.686;23.364;2023-03-11T14:24:01;4.45;;;2.05;;
20611;SDS011;10465;42.686;23.364;2023-03-11T14:26:29;3.47;;;1.50;;
20611;SDS011;10465;42.686;23.364;2023-03-11T14:28:58;2.47;;;1.55;;
20611;SDS011;10465;42.686;23.364;2023-03-11T14:34:01;2.45;;;1.70;;
20611;SDS011;10465;42.686;23.364;2023-03-11T14:36:46;3.95;;;2.67;;
20611;SDS011;10465;42.686;23.364;2023-03-11T14:41:50;2.72;;;1.88;;
20611;SDS011;10465;42.686;23.364;2023-03-11T14:44:19;2.90;;;1.80;;
20611;SDS011;10465;42.686;23.364;2023-03-11T14:46:46;4.13;;;1.75;;
20611;SDS011;10465;42.686;23.364;2023-03-11T14:49:15;2.78;;;1.45;;
20611;SDS011;10465;42.686;23.364;2023-03-11T14:51:45;2.20;;;1.50;;
20611;SDS011;10465;42.686;23.364;2023-03-11T14:54:15;3.20;;;1.80;;
20611;SDS011;10465;42.686;23.364;2023-03-11T14:56:47;2.97;;;2.35;;
20611;SDS011;10465;42.686;23.364;2023-03-11T14:59:23;2.53;;;2.17;;
20611;SDS011;10465;42.686;23.364;2023-03-11T15:01:56;2.38;;;1.95;;
20611;SDS011;10465;42.686;23.364;2023-03-11T15:06:57;3.85;;;2.30;;
20611;SDS011;10465;42.686;23.364;2023-03-11T15:09:24;3.78;;;1.73;;
20611;SDS011;10465;42.686;23.364;2023-03-11T15:11:52;1.52;;;1.15;;
20611;SDS011;10465;42.686;23.364;2023-03-11T15:14:24;3.53;;;1.63;;
20611;SDS011;10465;42.686;23.364;2023-03-11T15:16:52;2.30;;;1.70;;
20611;SDS011;10465;42.686;23.364;2023-03-11T15:19:32;4.20;;;1.67;;
20611;SDS011;10465;42.686;23.364;2023-03-11T15:22:05;3.55;;;1.88;;
20611;SDS011;10465;42.686;23.364;2023-03-11T15:24:56;4.97;;;3.20;;
20611;SDS011;10465;42.686;23.364;2023-03-11T15:30:00;6.60;;;3.53;;
20611;SDS011;10465;42.686;23.364;2023-03-11T15:32:40;7.97;;;3.25;;
20611;SDS011;10465;42.686;23.364;2023-03-11T15:37:31;5.05;;;3.47;;
20611;SDS011;10465;42.686;23.364;2023-03-11T15:40:09;7.43;;;3.28;;
20611;SDS011;10465;42.686;23.364;2023-03-11T15:42:35;6.15;;;2.92;;
20611;SDS011;10465;42.686;23.364;2023-03-11T15:47:39;6.10;;;3.40;;
20611;SDS011;10465;42.686;23.364;2023-03-11T15:52:45;4.95;;;3.50;;
20611;SDS011;10465;42.686;23.364;2023-03-11T15:55:12;5.00;;;3.08;;
20611;SDS011;10465;42.686;23.364;2023-03-11T15:57:37;6.32;;;3.60;;
20611;SDS011;10465;42.686;23.364;2023-03-11T16:00:04;4.00;;;3.33;;
20611;SDS011;10465;42.686;23.364;2023-03-11T16:02:46;6.00;;;3.67;;
20611;SDS011;10465;42.686;23.364;2023-03-11T16:05:13;6.03;;;4.05;;
20611;SDS011;10465;42.686;23.364;2023-03-11T16:07:43;7.28;;;4.15;;
20611;SDS011;10465;42.686;23.364;2023-03-11T16:10:09;4.65;;;4.15;;
20611;SDS011;10465;42.686;23.364;2023-03-11T16:12:36;4.70;;;4.03;;
20611;SDS011;10465;42.686;23.364;2023-03-11T16:15:02;6.28;;;3.95;;
20611;SDS011;10465;42.686;23.364;2023-03-11T16:17:28;4.85;;;4.30;;
20611;SDS011;10465;42.686;23.364;2023-03-11T16:19:53;5.32;;;4.57;;
20611;SDS011;10465;42.686;23.364;2023-03-11T16:22:20;4.68;;;4.22;;
20611;SDS011;10465;42.686;23.364;2023-03-11T16:24:51;5.20;;;4.68;;
20611;SDS011;10465;42.686;23.364;2023-03-11T16:27:18;4.88;;;3.92;;
20611;SDS011;10465;42.686;23.364;2023-03-11T16:29:44;6.28;;;4.38;;
20611;SDS011;10465;42.686;23.364;2023-03-11T16:32:10;4.05;;;3.63;;
20611;SDS011;10465;42.686;23.364;2023-03-11T16:34:36;4.75;;;3.80;;
20611;SDS011;10465;42.686;23.364;2023-03-11T16:37:03;5.40;;;3.90;;
20611;SDS011;10465;42.686;23.364;2023-03-11T16:39:30;4.05;;;3.40;;
20611;SDS011;10465;42.686;23.364;2023-03-11T16:41:55;4.80;;;3.58;;
20611;SDS011;10465;42.686;23.364;2023-03-11T16:44:21;5.25;;;2.88;;
20611;SDS011;10465;42.686;23.364;2023-03-11T16:46:46;8.50;;;3.92;;
20611;SDS011;10465;42.686;23.364;2023-03-11T16:49:12;4.60;;;3.17;;
20611;SDS011;10465;42.686;23.364;2023-03-11T16:51:37;6.60;;;4.28;;
20611;SDS011;10465;42.686;23.364;2023-03-11T16:54:03;3.05;;;2.75;;
20611;SDS011;10465;42.686;23.364;2023-03-11T16:56:28;7.13;;;3.88;;
20611;SDS011;10465;42.686;23.364;2023-03-11T16:58:54;5.93;;;3.33;;